This is the latest recevied weather packets stored in our database for station/object NO9B. If no packets are shown the sender has not sent any weather packets the latest 10 day(s).
| Time | Temp. | Humidity | Pressure | Rain* | Wind** | Luminosity | Snow |
|---|---|---|---|---|---|---|---|
| 1787943976 | 28.89° C | 51% | 1021.6 hPa | 0 mm | - | 590 W/m² | - |
| 1787943672 | 28.89° C | 47% | 1021.5 hPa | 0 mm | - | 595 W/m² | - |
| 1787943372 | 28.89° C | 46% | 1021.4 hPa | 0 mm | - | 376 W/m² | - |
| 1787943067 | 28.33° C | 50% | 1021.6 hPa | 0 mm | - | 612 W/m² | - |
| 1787942761 | 28.33° C | 51% | 1021.6 hPa | 0 mm | - | 98 W/m² | - |
| 1787942456 | 28.33° C | 51% | 1021.7 hPa | 0 mm | - | 89 W/m² | - |
| 1787942156 | 28.33° C | 52% | 1021.6 hPa | 0 mm | - | 102 W/m² | - |
| 1787941852 | 28.33° C | 51% | 1021.5 hPa | 0 mm | - | 628 W/m² | - |
| 1787941551 | 28.33° C | 52% | 1021.8 hPa | 0 mm | - | 639 W/m² | - |
| 1787941246 | 28.33° C | 49% | 1021.7 hPa | 0 mm | - | 631 W/m² | - |
| 1787940940 | 28.33° C | 53% | 1021.8 hPa | 0 mm | - | 609 W/m² | - |
| 1787940638 | 27.78° C | 55% | 1021.7 hPa | 0 mm | - | 637 W/m² | - |
| 1787940337 | 27.78° C | 57% | 1021.8 hPa | 0 mm | - | 123 W/m² | - |
| 1787940037 | 27.78° C | 56% | 1021.8 hPa | 0 mm | - | 591 W/m² | - |
| 1787939736 | 27.22° C | 59% | 1021.9 hPa | 0 mm | - | 131 W/m² | - |
| 1787939431 | 27.78° C | 55% | 1021.9 hPa | 0 mm | - | 98 W/m² | - |
| 1787939126 | 28.33° C | 51% | 1021.7 hPa | 0 mm | - | 664 W/m² | - |
| 1787938826 | 27.78° C | 51% | 1022.1 hPa | 0 mm | - | 675 W/m² | - |
| 1787938520 | 26.67° C | 56% | 1021.8 hPa | 0 mm | - | 638 W/m² | - |
| 1787938216 | 27.78° C | 52% | 1021.8 hPa | 0 mm | - | 95 W/m² | - |
| 1787937911 | 26.67° C | 56% | 1022.1 hPa | 0 mm | - | 633 W/m² | - |
| 1787937607 | 26.67° C | 56% | 1021.9 hPa | 0 mm | - | 216 W/m² | - |
| 1787937303 | 27.22° C | 56% | 1021.8 hPa | 0 mm | - | 74 W/m² | - |
| 1787936999 | 27.22° C | 57% | 1022.1 hPa | 0 mm | - | 259 W/m² | - |
| 1787936698 | 26.67° C | 59% | 1022.1 hPa | 0 mm | - | 589 W/m² | - |
* Rain latest hour (hover to see other rain measurements)
** Current wind speed in m/s (hover to see current wind gust speed)